sensor_id;sensor_type;location;lat;lon;timestamp;P1;durP1;ratioP1;P2;durP2;ratioP2
25627;SDS011;40915;50.826;4.356;2023-02-28T00:00:20;8.50;;;4.27;;
25627;SDS011;40915;50.826;4.356;2023-02-28T00:02:46;12.40;;;4.23;;
25627;SDS011;40915;50.826;4.356;2023-02-28T00:05:13;7.90;;;4.10;;
25627;SDS011;40915;50.826;4.356;2023-02-28T00:07:41;8.80;;;3.87;;
25627;SDS011;40915;50.826;4.356;2023-02-28T00:10:08;7.20;;;3.97;;
25627;SDS011;40915;50.826;4.356;2023-02-28T00:12:36;7.80;;;3.80;;
25627;SDS011;40915;50.826;4.356;2023-02-28T00:15:03;7.20;;;4.07;;
25627;SDS011;40915;50.826;4.356;2023-02-28T00:17:31;5.37;;;3.60;;
25627;SDS011;40915;50.826;4.356;2023-02-28T00:19:56;8.97;;;4.20;;
25627;SDS011;40915;50.826;4.356;2023-02-28T00:22:26;7.03;;;3.80;;
25627;SDS011;40915;50.826;4.356;2023-02-28T00:24:52;7.87;;;3.90;;
25627;SDS011;40915;50.826;4.356;2023-02-28T00:27:19;6.77;;;3.70;;
25627;SDS011;40915;50.826;4.356;2023-02-28T00:29:46;8.93;;;3.97;;
25627;SDS011;40915;50.826;4.356;2023-02-28T00:32:12;6.13;;;4.37;;
25627;SDS011;40915;50.826;4.356;2023-02-28T00:34:39;9.23;;;5.20;;
25627;SDS011;40915;50.826;4.356;2023-02-28T00:37:05;13.37;;;6.77;;
25627;SDS011;40915;50.826;4.356;2023-02-28T00:39:35;12.63;;;8.37;;
25627;SDS011;40915;50.826;4.356;2023-02-28T00:42:02;13.70;;;9.17;;
25627;SDS011;40915;50.826;4.356;2023-02-28T00:44:28;15.10;;;10.40;;
25627;SDS011;40915;50.826;4.356;2023-02-28T00:46:54;15.73;;;11.07;;
25627;SDS011;40915;50.826;4.356;2023-02-28T00:49:21;14.70;;;10.50;;
25627;SDS011;40915;50.826;4.356;2023-02-28T00:51:47;17.87;;;9.50;;
25627;SDS011;40915;50.826;4.356;2023-02-28T00:54:13;11.70;;;7.20;;
25627;SDS011;40915;50.826;4.356;2023-02-28T00:56:38;11.87;;;7.40;;
25627;SDS011;40915;50.826;4.356;2023-02-28T00:59:04;9.87;;;5.80;;
25627;SDS011;40915;50.826;4.356;2023-02-28T01:01:30;9.93;;;5.37;;
25627;SDS011;40915;50.826;4.356;2023-02-28T01:03:55;7.23;;;4.80;;
25627;SDS011;40915;50.826;4.356;2023-02-28T01:06:21;7.13;;;4.70;;
25627;SDS011;40915;50.826;4.356;2023-02-28T01:08:47;7.27;;;4.47;;
25627;SDS011;40915;50.826;4.356;2023-02-28T01:11:13;6.63;;;4.43;;
25627;SDS011;40915;50.826;4.356;2023-02-28T01:13:41;6.47;;;4.13;;
25627;SDS011;40915;50.826;4.356;2023-02-28T01:16:07;7.93;;;4.77;;
25627;SDS011;40915;50.826;4.356;2023-02-28T01:18:33;7.30;;;4.50;;
25627;SDS011;40915;50.826;4.356;2023-02-28T01:21:03;6.40;;;4.07;;
25627;SDS011;40915;50.826;4.356;2023-02-28T01:23:29;5.97;;;4.10;;
25627;SDS011;40915;50.826;4.356;2023-02-28T01:25:55;6.60;;;4.03;;
25627;SDS011;40915;50.826;4.356;2023-02-28T01:28:21;7.13;;;4.07;;
25627;SDS011;40915;50.826;4.356;2023-02-28T01:30:47;6.17;;;3.97;;
25627;SDS011;40915;50.826;4.356;2023-02-28T01:33:16;6.50;;;4.13;;
25627;SDS011;40915;50.826;4.356;2023-02-28T01:35:42;7.70;;;3.90;;
25627;SDS011;40915;50.826;4.356;2023-02-28T01:38:07;8.47;;;4.07;;
25627;SDS011;40915;50.826;4.356;2023-02-28T01:40:33;6.43;;;4.47;;
25627;SDS011;40915;50.826;4.356;2023-02-28T01:42:59;9.13;;;4.50;;
25627;SDS011;40915;50.826;4.356;2023-02-28T01:45:26;6.30;;;3.97;;
25627;SDS011;40915;50.826;4.356;2023-02-28T01:48:00;8.83;;;4.47;;
25627;SDS011;40915;50.826;4.356;2023-02-28T01:50:31;8.17;;;4.33;;
25627;SDS011;40915;50.826;4.356;2023-02-28T01:53:04;7.63;;;4.10;;
25627;SDS011;40915;50.826;4.356;2023-02-28T01:55:35;10.27;;;5.30;;
25627;SDS011;40915;50.826;4.356;2023-02-28T01:58:02;6.30;;;4.60;;
25627;SDS011;40915;50.826;4.356;2023-02-28T02:00:30;5.67;;;4.90;;
25627;SDS011;40915;50.826;4.356;2023-02-28T02:02:57;7.37;;;4.87;;
25627;SDS011;40915;50.826;4.356;2023-02-28T02:05:27;7.87;;;4.87;;
25627;SDS011;40915;50.826;4.356;2023-02-28T02:07:57;11.17;;;4.77;;
25627;SDS011;40915;50.826;4.356;2023-02-28T02:10:30;12.63;;;5.13;;
25627;SDS011;40915;50.826;4.356;2023-02-28T02:24:11;7.33;;;4.50;;
25627;SDS011;40915;50.826;4.356;2023-02-28T02:32:37;7.63;;;4.87;;
25627;SDS011;40915;50.826;4.356;2023-02-28T02:41:17;6.50;;;4.70;;
25627;SDS011;40915;50.826;4.356;2023-02-28T02:46:18;8.47;;;5.13;;
25627;SDS011;40915;50.826;4.356;2023-02-28T02:48:48;8.17;;;5.70;;
25627;SDS011;40915;50.826;4.356;2023-02-28T02:51:17;8.47;;;5.37;;
25627;SDS011;40915;50.826;4.356;2023-02-28T02:53:47;10.00;;;5.63;;
25627;SDS011;40915;50.826;4.356;2023-02-28T02:56:19;12.37;;;5.80;;
25627;SDS011;40915;50.826;4.356;2023-02-28T02:58:49;7.13;;;4.90;;
25627;SDS011;40915;50.826;4.356;2023-02-28T03:01:18;8.70;;;5.87;;
25627;SDS011;40915;50.826;4.356;2023-02-28T03:03:52;7.20;;;5.73;;
25627;SDS011;40915;50.826;4.356;2023-02-28T03:06:23;8.83;;;5.70;;
25627;SDS011;40915;50.826;4.356;2023-02-28T03:08:49;8.33;;;5.60;;
25627;SDS011;40915;50.826;4.356;2023-02-28T03:11:15;8.77;;;5.50;;
25627;SDS011;40915;50.826;4.356;2023-02-28T03:16:23;8.03;;;5.60;;
25627;SDS011;40915;50.826;4.356;2023-02-28T03:25:17;8.30;;;5.97;;
25627;SDS011;40915;50.826;4.356;2023-02-28T03:27:36;8.33;;;5.90;;
25627;SDS011;40915;50.826;4.356;2023-02-28T03:30:41;11.90;;;6.27;;
25627;SDS011;40915;50.826;4.356;2023-02-28T03:33:29;8.07;;;6.00;;
25627;SDS011;40915;50.826;4.356;2023-02-28T03:36:01;11.73;;;6.70;;
25627;SDS011;40915;50.826;4.356;2023-02-28T03:38:31;9.67;;;6.30;;
25627;SDS011;40915;50.826;4.356;2023-02-28T03:41:19;8.60;;;6.20;;
25627;SDS011;40915;50.826;4.356;2023-02-28T03:43:49;10.73;;;6.33;;
25627;SDS011;40915;50.826;4.356;2023-02-28T03:46:22;11.60;;;6.83;;
25627;SDS011;40915;50.826;4.356;2023-02-28T03:48:53;10.73;;;6.73;;
25627;SDS011;40915;50.826;4.356;2023-02-28T03:51:25;10.23;;;6.90;;
25627;SDS011;40915;50.826;4.356;2023-02-28T03:53:54;9.47;;;6.50;;
25627;SDS011;40915;50.826;4.356;2023-02-28T03:56:30;10.63;;;7.23;;
25627;SDS011;40915;50.826;4.356;2023-02-28T03:59:07;9.67;;;6.93;;
25627;SDS011;40915;50.826;4.356;2023-02-28T04:01:39;12.63;;;7.00;;
25627;SDS011;40915;50.826;4.356;2023-02-28T04:04:10;12.27;;;7.10;;
25627;SDS011;40915;50.826;4.356;2023-02-28T04:06:37;15.00;;;7.17;;
25627;SDS011;40915;50.826;4.356;2023-02-28T04:09:03;13.97;;;7.03;;
25627;SDS011;40915;50.826;4.356;2023-02-28T04:11:36;9.73;;;6.97;;
25627;SDS011;40915;50.826;4.356;2023-02-28T04:14:04;10.60;;;7.30;;
25627;SDS011;40915;50.826;4.356;2023-02-28T04:16:31;11.30;;;7.20;;
25627;SDS011;40915;50.826;4.356;2023-02-28T04:18:57;10.30;;;6.73;;
25627;SDS011;40915;50.826;4.356;2023-02-28T04:21:26;10.80;;;6.93;;
25627;SDS011;40915;50.826;4.356;2023-02-28T04:24:03;11.67;;;7.20;;
25627;SDS011;40915;50.826;4.356;2023-02-28T04:26:30;13.17;;;6.93;;
25627;SDS011;40915;50.826;4.356;2023-02-28T04:28:58;12.43;;;7.20;;
25627;SDS011;40915;50.826;4.356;2023-02-28T04:31:24;10.03;;;7.20;;
25627;SDS011;40915;50.826;4.356;2023-02-28T04:33:50;10.00;;;7.40;;
25627;SDS011;40915;50.826;4.356;2023-02-28T04:36:16;9.20;;;6.90;;
25627;SDS011;40915;50.826;4.356;2023-02-28T04:38:43;12.40;;;7.37;;
25627;SDS011;40915;50.826;4.356;2023-02-28T04:41:09;9.87;;;6.67;;
25627;SDS011;40915;50.826;4.356;2023-02-28T04:43:35;11.70;;;7.53;;
25627;SDS011;40915;50.826;4.356;2023-02-28T04:46:03;10.80;;;7.13;;
25627;SDS011;40915;50.826;4.356;2023-02-28T04:48:30;12.07;;;7.37;;
25627;SDS011;40915;50.826;4.356;2023-02-28T04:51:01;11.10;;;7.37;;
25627;SDS011;40915;50.826;4.356;2023-02-28T04:53:37;10.67;;;7.07;;
25627;SDS011;40915;50.826;4.356;2023-02-28T04:56:04;10.87;;;7.07;;
25627;SDS011;40915;50.826;4.356;2023-02-28T04:58:31;9.63;;;6.70;;
25627;SDS011;40915;50.826;4.356;2023-02-28T05:01:03;11.70;;;7.60;;
25627;SDS011;40915;50.826;4.356;2023-02-28T05:03:37;15.03;;;7.67;;
25627;SDS011;40915;50.826;4.356;2023-02-28T05:06:05;9.17;;;6.90;;
25627;SDS011;40915;50.826;4.356;2023-02-28T05:08:32;14.37;;;7.17;;
25627;SDS011;40915;50.826;4.356;2023-02-28T05:10:58;11.30;;;6.73;;
25627;SDS011;40915;50.826;4.356;2023-02-28T05:13:25;17.73;;;7.30;;
25627;SDS011;40915;50.826;4.356;2023-02-28T05:15:52;14.30;;;7.07;;
25627;SDS011;40915;50.826;4.356;2023-02-28T05:18:18;13.00;;;7.30;;
25627;SDS011;40915;50.826;4.356;2023-02-28T05:20:43;11.07;;;6.93;;
25627;SDS011;40915;50.826;4.356;2023-02-28T05:23:12;10.07;;;7.20;;
25627;SDS011;40915;50.826;4.356;2023-02-28T05:25:39;11.17;;;7.33;;
25627;SDS011;40915;50.826;4.356;2023-02-28T05:28:05;10.07;;;6.90;;
25627;SDS011;40915;50.826;4.356;2023-02-28T05:30:31;10.60;;;7.27;;
25627;SDS011;40915;50.826;4.356;2023-02-28T05:32:57;13.00;;;8.07;;
25627;SDS011;40915;50.826;4.356;2023-02-28T05:35:23;12.03;;;7.50;;
25627;SDS011;40915;50.826;4.356;2023-02-28T05:37:50;14.50;;;7.77;;
25627;SDS011;40915;50.826;4.356;2023-02-28T05:40:16;27.07;;;13.20;;
25627;SDS011;40915;50.826;4.356;2023-02-28T05:42:42;12.97;;;7.73;;
25627;SDS011;40915;50.826;4.356;2023-02-28T05:45:08;12.60;;;7.43;;
25627;SDS011;40915;50.826;4.356;2023-02-28T05:47:34;11.07;;;7.20;;
25627;SDS011;40915;50.826;4.356;2023-02-28T05:50:00;11.10;;;7.30;;
25627;SDS011;40915;50.826;4.356;2023-02-28T05:52:27;12.40;;;6.97;;
25627;SDS011;40915;50.826;4.356;2023-02-28T05:54:54;10.03;;;7.00;;
25627;SDS011;40915;50.826;4.356;2023-02-28T05:57:20;10.73;;;7.63;;
25627;SDS011;40915;50.826;4.356;2023-02-28T05:59:46;13.60;;;7.27;;
25627;SDS011;40915;50.826;4.356;2023-02-28T06:02:12;12.20;;;7.20;;
25627;SDS011;40915;50.826;4.356;2023-02-28T06:04:39;12.93;;;7.13;;
25627;SDS011;40915;50.826;4.356;2023-02-28T06:07:05;12.17;;;6.80;;
25627;SDS011;40915;50.826;4.356;2023-02-28T06:09:31;11.53;;;7.00;;
25627;SDS011;40915;50.826;4.356;2023-02-28T06:12:01;13.07;;;7.73;;
25627;SDS011;40915;50.826;4.356;2023-02-28T06:14:30;9.80;;;6.23;;
25627;SDS011;40915;50.826;4.356;2023-02-28T06:16:57;12.90;;;7.97;;
25627;SDS011;40915;50.826;4.356;2023-02-28T06:19:23;14.80;;;6.80;;
25627;SDS011;40915;50.826;4.356;2023-02-28T06:21:52;10.40;;;6.93;;
25627;SDS011;40915;50.826;4.356;2023-02-28T06:24:21;16.07;;;7.70;;
25627;SDS011;40915;50.826;4.356;2023-02-28T06:26:48;12.40;;;6.97;;
25627;SDS011;40915;50.826;4.356;2023-02-28T06:29:15;13.27;;;7.30;;
25627;SDS011;40915;50.826;4.356;2023-02-28T06:31:44;9.63;;;6.90;;
25627;SDS011;40915;50.826;4.356;2023-02-28T06:34:13;16.93;;;8.93;;
25627;SDS011;40915;50.826;4.356;2023-02-28T06:36:39;12.73;;;7.20;;
25627;SDS011;40915;50.826;4.356;2023-02-28T06:39:06;14.23;;;7.53;;
25627;SDS011;40915;50.826;4.356;2023-02-28T06:41:33;11.67;;;6.40;;
25627;SDS011;40915;50.826;4.356;2023-02-28T06:44:10;11.63;;;7.10;;
25627;SDS011;40915;50.826;4.356;2023-02-28T06:46:38;16.70;;;6.57;;
25627;SDS011;40915;50.826;4.356;2023-02-28T06:49:05;11.90;;;6.50;;
25627;SDS011;40915;50.826;4.356;2023-02-28T06:51:33;7.03;;;5.70;;
25627;SDS011;40915;50.826;4.356;2023-02-28T06:54:00;25.53;;;8.03;;
25627;SDS011;40915;50.826;4.356;2023-02-28T06:56:26;10.50;;;6.33;;
25627;SDS011;40915;50.826;4.356;2023-02-28T06:58:52;10.57;;;6.50;;
25627;SDS011;40915;50.826;4.356;2023-02-28T07:01:18;13.00;;;6.80;;
25627;SDS011;40915;50.826;4.356;2023-02-28T07:03:44;14.47;;;7.23;;
25627;SDS011;40915;50.826;4.356;2023-02-28T07:06:10;13.93;;;6.97;;
25627;SDS011;40915;50.826;4.356;2023-02-28T07:08:36;11.13;;;7.07;;
25627;SDS011;40915;50.826;4.356;2023-02-28T07:11:02;10.47;;;6.87;;
25627;SDS011;40915;50.826;4.356;2023-02-28T07:13:28;12.93;;;6.20;;
25627;SDS011;40915;50.826;4.356;2023-02-28T07:15:58;12.73;;;6.43;;
25627;SDS011;40915;50.826;4.356;2023-02-28T07:18:27;11.90;;;6.07;;
25627;SDS011;40915;50.826;4.356;2023-02-28T07:20:53;16.77;;;6.60;;
25627;SDS011;40915;50.826;4.356;2023-02-28T07:23:19;12.50;;;5.93;;
25627;SDS011;40915;50.826;4.356;2023-02-28T07:25:45;9.63;;;5.77;;
25627;SDS011;40915;50.826;4.356;2023-02-28T07:28:12;10.43;;;6.50;;
25627;SDS011;40915;50.826;4.356;2023-02-28T07:30:38;9.73;;;6.00;;
25627;SDS011;40915;50.826;4.356;2023-02-28T07:33:04;9.33;;;5.93;;
25627;SDS011;40915;50.826;4.356;2023-02-28T07:35:30;9.13;;;5.80;;
25627;SDS011;40915;50.826;4.356;2023-02-28T07:37:58;9.83;;;5.90;;
25627;SDS011;40915;50.826;4.356;2023-02-28T07:40:25;8.40;;;5.67;;
25627;SDS011;40915;50.826;4.356;2023-02-28T07:42:51;10.07;;;6.00;;
25627;SDS011;40915;50.826;4.356;2023-02-28T07:45:16;10.57;;;6.00;;
25627;SDS011;40915;50.826;4.356;2023-02-28T07:47:43;12.93;;;6.10;;
25627;SDS011;40915;50.826;4.356;2023-02-28T07:50:10;9.17;;;6.00;;
25627;SDS011;40915;50.826;4.356;2023-02-28T07:52:37;12.07;;;6.00;;
25627;SDS011;40915;50.826;4.356;2023-02-28T07:55:04;11.30;;;5.60;;
25627;SDS011;40915;50.826;4.356;2023-02-28T07:57:30;7.20;;;4.70;;
25627;SDS011;40915;50.826;4.356;2023-02-28T07:59:56;7.53;;;4.97;;
25627;SDS011;40915;50.826;4.356;2023-02-28T08:02:22;12.80;;;5.90;;
25627;SDS011;40915;50.826;4.356;2023-02-28T08:04:48;11.13;;;4.50;;
25627;SDS011;40915;50.826;4.356;2023-02-28T08:07:17;7.10;;;4.37;;
25627;SDS011;40915;50.826;4.356;2023-02-28T08:09:43;7.03;;;4.37;;
25627;SDS011;40915;50.826;4.356;2023-02-28T08:12:10;11.30;;;4.57;;
25627;SDS011;40915;50.826;4.356;2023-02-28T08:14:36;8.90;;;4.40;;
25627;SDS011;40915;50.826;4.356;2023-02-28T08:17:03;8.57;;;4.70;;
25627;SDS011;40915;50.826;4.356;2023-02-28T08:19:29;8.40;;;4.10;;
25627;SDS011;40915;50.826;4.356;2023-02-28T08:21:55;8.03;;;3.83;;
25627;SDS011;40915;50.826;4.356;2023-02-28T08:24:22;12.43;;;7.03;;
25627;SDS011;40915;50.826;4.356;2023-02-28T08:26:47;9.20;;;3.40;;
25627;SDS011;40915;50.826;4.356;2023-02-28T08:29:13;7.53;;;3.63;;
25627;SDS011;40915;50.826;4.356;2023-02-28T08:31:40;12.23;;;4.43;;
25627;SDS011;40915;50.826;4.356;2023-02-28T08:34:07;11.30;;;4.27;;
25627;SDS011;40915;50.826;4.356;2023-02-28T08:36:34;8.03;;;3.90;;
25627;SDS011;40915;50.826;4.356;2023-02-28T08:39:00;6.23;;;3.67;;
25627;SDS011;40915;50.826;4.356;2023-02-28T08:41:26;11.10;;;5.67;;
25627;SDS011;40915;50.826;4.356;2023-02-28T08:43:52;5.80;;;3.30;;
25627;SDS011;40915;50.826;4.356;2023-02-28T08:46:18;4.17;;;3.40;;
25627;SDS011;40915;50.826;4.356;2023-02-28T08:48:44;6.80;;;3.67;;
25627;SDS011;40915;50.826;4.356;2023-02-28T08:51:14;9.13;;;5.30;;
25627;SDS011;40915;50.826;4.356;2023-02-28T08:53:43;9.23;;;4.30;;
25627;SDS011;40915;50.826;4.356;2023-02-28T08:56:13;4.17;;;3.60;;
25627;SDS011;40915;50.826;4.356;2023-02-28T08:58:41;6.37;;;3.23;;
25627;SDS011;40915;50.826;4.356;2023-02-28T09:01:09;6.27;;;3.70;;
25627;SDS011;40915;50.826;4.356;2023-02-28T09:03:35;6.03;;;3.37;;
25627;SDS011;40915;50.826;4.356;2023-02-28T09:06:01;7.20;;;3.07;;
25627;SDS011;40915;50.826;4.356;2023-02-28T09:08:27;5.50;;;3.50;;
25627;SDS011;40915;50.826;4.356;2023-02-28T09:10:57;6.30;;;3.80;;
25627;SDS011;40915;50.826;4.356;2023-02-28T09:13:25;6.23;;;3.63;;
25627;SDS011;40915;50.826;4.356;2023-02-28T09:15:51;7.13;;;3.37;;
25627;SDS011;40915;50.826;4.356;2023-02-28T09:18:18;6.77;;;3.20;;
25627;SDS011;40915;50.826;4.356;2023-02-28T09:20:44;6.03;;;3.20;;
25627;SDS011;40915;50.826;4.356;2023-02-28T09:23:10;5.43;;;3.73;;
25627;SDS011;40915;50.826;4.356;2023-02-28T09:25:37;5.83;;;3.60;;
25627;SDS011;40915;50.826;4.356;2023-02-28T09:28:09;10.87;;;3.93;;
25627;SDS011;40915;50.826;4.356;2023-02-28T09:30:36;7.07;;;3.33;;
25627;SDS011;40915;50.826;4.356;2023-02-28T09:33:02;5.40;;;3.47;;
25627;SDS011;40915;50.826;4.356;2023-02-28T09:35:28;4.43;;;2.60;;
25627;SDS011;40915;50.826;4.356;2023-02-28T09:37:55;4.67;;;2.60;;
25627;SDS011;40915;50.826;4.356;2023-02-28T09:40:22;4.23;;;2.43;;
25627;SDS011;40915;50.826;4.356;2023-02-28T09:42:51;6.17;;;2.63;;
25627;SDS011;40915;50.826;4.356;2023-02-28T09:45:29;7.50;;;3.07;;
25627;SDS011;40915;50.826;4.356;2023-02-28T09:48:02;9.83;;;2.93;;
25627;SDS011;40915;50.826;4.356;2023-02-28T09:50:45;6.80;;;2.47;;
25627;SDS011;40915;50.826;4.356;2023-02-28T09:53:19;8.73;;;4.73;;
25627;SDS011;40915;50.826;4.356;2023-02-28T09:55:53;5.93;;;2.57;;
25627;SDS011;40915;50.826;4.356;2023-02-28T10:00:58;3.57;;;2.23;;
25627;SDS011;40915;50.826;4.356;2023-02-28T10:03:30;6.20;;;2.60;;
25627;SDS011;40915;50.826;4.356;2023-02-28T10:08:56;4.33;;;2.40;;
25627;SDS011;40915;50.826;4.356;2023-02-28T10:11:26;9.17;;;2.50;;
25627;SDS011;40915;50.826;4.356;2023-02-28T10:16:55;4.70;;;2.20;;
25627;SDS011;40915;50.826;4.356;2023-02-28T10:19:40;4.43;;;2.50;;
25627;SDS011;40915;50.826;4.356;2023-02-28T10:22:45;2.80;;;2.17;;
25627;SDS011;40915;50.826;4.356;2023-02-28T10:25:23;3.40;;;2.00;;
25627;SDS011;40915;50.826;4.356;2023-02-28T10:28:05;5.77;;;2.20;;
25627;SDS011;40915;50.826;4.356;2023-02-28T10:30:39;3.73;;;2.30;;
25627;SDS011;40915;50.826;4.356;2023-02-28T10:36:03;4.27;;;2.27;;
25627;SDS011;40915;50.826;4.356;2023-02-28T10:41:11;2.90;;;1.73;;
25627;SDS011;40915;50.826;4.356;2023-02-28T10:44:17;3.17;;;2.00;;
25627;SDS011;40915;50.826;4.356;2023-02-28T10:46:46;2.67;;;1.80;;
25627;SDS011;40915;50.826;4.356;2023-02-28T10:49:14;4.47;;;2.30;;
25627;SDS011;40915;50.826;4.356;2023-02-28T10:51:44;6.40;;;2.10;;
25627;SDS011;40915;50.826;4.356;2023-02-28T10:54:16;4.63;;;1.90;;
25627;SDS011;40915;50.826;4.356;2023-02-28T10:56:44;4.30;;;2.10;;
25627;SDS011;40915;50.826;4.356;2023-02-28T10:59:29;3.43;;;1.80;;
25627;SDS011;40915;50.826;4.356;2023-02-28T11:01:55;2.80;;;1.60;;
25627;SDS011;40915;50.826;4.356;2023-02-28T11:06:51;6.23;;;3.33;;
25627;SDS011;40915;50.826;4.356;2023-02-28T11:09:36;2.90;;;1.90;;
25627;SDS011;40915;50.826;4.356;2023-02-28T11:12:05;5.10;;;2.23;;
25627;SDS011;40915;50.826;4.356;2023-02-28T11:14:35;3.47;;;1.70;;
25627;SDS011;40915;50.826;4.356;2023-02-28T11:17:19;3.33;;;2.17;;
25627;SDS011;40915;50.826;4.356;2023-02-28T11:19:48;2.97;;;1.80;;
25627;SDS011;40915;50.826;4.356;2023-02-28T11:22:20;2.50;;;1.97;;
25627;SDS011;40915;50.826;4.356;2023-02-28T11:24:50;2.10;;;1.80;;
25627;SDS011;40915;50.826;4.356;2023-02-28T11:27:25;13.93;;;3.07;;
25627;SDS011;40915;50.826;4.356;2023-02-28T11:29:56;2.70;;;1.90;;
25627;SDS011;40915;50.826;4.356;2023-02-28T11:32:23;2.80;;;1.97;;
25627;SDS011;40915;50.826;4.356;2023-02-28T11:37:37;3.53;;;2.10;;
25627;SDS011;40915;50.826;4.356;2023-02-28T11:40:13;4.17;;;2.13;;
25627;SDS011;40915;50.826;4.356;2023-02-28T11:42:49;2.97;;;1.80;;
25627;SDS011;40915;50.826;4.356;2023-02-28T11:48:17;3.27;;;2.20;;
25627;SDS011;40915;50.826;4.356;2023-02-28T11:50:59;3.50;;;2.00;;
25627;SDS011;40915;50.826;4.356;2023-02-28T11:56:55;6.50;;;3.20;;
25627;SDS011;40915;50.826;4.356;2023-02-28T12:02:23;3.97;;;2.23;;
25627;SDS011;40915;50.826;4.356;2023-02-28T12:05:14;7.07;;;2.50;;
25627;SDS011;40915;50.826;4.356;2023-02-28T12:18:42;2.60;;;2.20;;
25627;SDS011;40915;50.826;4.356;2023-02-28T12:21:41;2.77;;;2.00;;
25627;SDS011;40915;50.826;4.356;2023-02-28T12:24:31;3.50;;;2.20;;
25627;SDS011;40915;50.826;4.356;2023-02-28T12:27:12;2.47;;;2.00;;
25627;SDS011;40915;50.826;4.356;2023-02-28T12:29:52;5.00;;;2.40;;
25627;SDS011;40915;50.826;4.356;2023-02-28T12:32:26;2.53;;;1.87;;
25627;SDS011;40915;50.826;4.356;2023-02-28T12:35:06;4.20;;;1.80;;
25627;SDS011;40915;50.826;4.356;2023-02-28T12:37:40;4.30;;;2.17;;
25627;SDS011;40915;50.826;4.356;2023-02-28T12:42:51;6.63;;;3.57;;
25627;SDS011;40915;50.826;4.356;2023-02-28T12:48:13;12.77;;;6.43;;
25627;SDS011;40915;50.826;4.356;2023-02-28T12:50:47;4.70;;;1.90;;
25627;SDS011;40915;50.826;4.356;2023-02-28T12:55:55;3.33;;;2.10;;
25627;SDS011;40915;50.826;4.356;2023-02-28T13:09:53;4.03;;;2.27;;
25627;SDS011;40915;50.826;4.356;2023-02-28T13:12:21;12.87;;;2.90;;
25627;SDS011;40915;50.826;4.356;2023-02-28T13:14:48;4.60;;;2.20;;
25627;SDS011;40915;50.826;4.356;2023-02-28T13:17:20;7.67;;;2.80;;
25627;SDS011;40915;50.826;4.356;2023-02-28T13:22:35;5.20;;;2.30;;
25627;SDS011;40915;50.826;4.356;2023-02-28T13:27:46;3.33;;;1.97;;
25627;SDS011;40915;50.826;4.356;2023-02-28T13:33:25;3.47;;;2.07;;
25627;SDS011;40915;50.826;4.356;2023-02-28T13:36:01;4.57;;;2.17;;
25627;SDS011;40915;50.826;4.356;2023-02-28T13:38:48;3.47;;;1.90;;
25627;SDS011;40915;50.826;4.356;2023-02-28T13:43:58;4.87;;;1.90;;
25627;SDS011;40915;50.826;4.356;2023-02-28T13:54:30;2.93;;;2.27;;
25627;SDS011;40915;50.826;4.356;2023-02-28T14:05:33;6.37;;;2.03;;
25627;SDS011;40915;50.826;4.356;2023-02-28T14:08:03;5.10;;;2.30;;
25627;SDS011;40915;50.826;4.356;2023-02-28T14:10:45;3.60;;;2.53;;
25627;SDS011;40915;50.826;4.356;2023-02-28T14:13:14;4.37;;;2.50;;
25627;SDS011;40915;50.826;4.356;2023-02-28T14:16:02;2.73;;;2.03;;
25627;SDS011;40915;50.826;4.356;2023-02-28T14:18:37;4.93;;;2.33;;
25627;SDS011;40915;50.826;4.356;2023-02-28T14:21:11;3.27;;;2.57;;
25627;SDS011;40915;50.826;4.356;2023-02-28T14:32:51;4.13;;;2.30;;
25627;SDS011;40915;50.826;4.356;2023-02-28T14:37:26;2.93;;;2.10;;
25627;SDS011;40915;50.826;4.356;2023-02-28T14:40:01;10.97;;;2.90;;
25627;SDS011;40915;50.826;4.356;2023-02-28T14:42:33;3.67;;;2.30;;
25627;SDS011;40915;50.826;4.356;2023-02-28T14:45:01;4.57;;;2.33;;
25627;SDS011;40915;50.826;4.356;2023-02-28T14:47:28;4.93;;;2.20;;
25627;SDS011;40915;50.826;4.356;2023-02-28T14:49:57;7.70;;;2.50;;
25627;SDS011;40915;50.826;4.356;2023-02-28T14:52:28;4.03;;;2.10;;
25627;SDS011;40915;50.826;4.356;2023-02-28T14:57:29;2.90;;;2.10;;
25627;SDS011;40915;50.826;4.356;2023-02-28T15:00:00;4.87;;;2.50;;
25627;SDS011;40915;50.826;4.356;2023-02-28T15:02:37;6.87;;;2.20;;
25627;SDS011;40915;50.826;4.356;2023-02-28T15:05:50;5.07;;;2.53;;
25627;SDS011;40915;50.826;4.356;2023-02-28T15:08:10;3.93;;;2.27;;
25627;SDS011;40915;50.826;4.356;2023-02-28T15:10:36;2.93;;;2.30;;
25627;SDS011;40915;50.826;4.356;2023-02-28T15:13:05;3.73;;;2.20;;
25627;SDS011;40915;50.826;4.356;2023-02-28T15:18:15;6.30;;;2.63;;
25627;SDS011;40915;50.826;4.356;2023-02-28T15:21:08;9.07;;;4.87;;
25627;SDS011;40915;50.826;4.356;2023-02-28T15:23:38;4.70;;;2.60;;
25627;SDS011;40915;50.826;4.356;2023-02-28T15:26:07;5.20;;;2.30;;
25627;SDS011;40915;50.826;4.356;2023-02-28T15:28:43;4.30;;;2.53;;
25627;SDS011;40915;50.826;4.356;2023-02-28T15:31:20;3.50;;;2.53;;
25627;SDS011;40915;50.826;4.356;2023-02-28T15:33:55;3.57;;;2.33;;
25627;SDS011;40915;50.826;4.356;2023-02-28T15:36:28;5.87;;;2.60;;
25627;SDS011;40915;50.826;4.356;2023-02-28T15:38:58;3.60;;;2.40;;
25627;SDS011;40915;50.826;4.356;2023-02-28T15:41:25;3.67;;;2.20;;
25627;SDS011;40915;50.826;4.356;2023-02-28T15:46:43;4.13;;;2.40;;
25627;SDS011;40915;50.826;4.356;2023-02-28T15:49:19;2.70;;;2.30;;
25627;SDS011;40915;50.826;4.356;2023-02-28T15:51:47;6.30;;;2.97;;
25627;SDS011;40915;50.826;4.356;2023-02-28T15:54:18;3.90;;;2.50;;
25627;SDS011;40915;50.826;4.356;2023-02-28T15:56:50;3.40;;;2.50;;
25627;SDS011;40915;50.826;4.356;2023-02-28T15:59:19;3.67;;;2.73;;
25627;SDS011;40915;50.826;4.356;2023-02-28T16:01:58;3.57;;;2.93;;
25627;SDS011;40915;50.826;4.356;2023-02-28T16:07:22;3.83;;;2.57;;
25627;SDS011;40915;50.826;4.356;2023-02-28T16:09:49;6.10;;;2.33;;
25627;SDS011;40915;50.826;4.356;2023-02-28T16:12:15;3.47;;;2.70;;
25627;SDS011;40915;50.826;4.356;2023-02-28T16:14:41;5.63;;;2.73;;
25627;SDS011;40915;50.826;4.356;2023-02-28T16:17:10;4.17;;;2.53;;
25627;SDS011;40915;50.826;4.356;2023-02-28T16:19:46;5.07;;;2.67;;
25627;SDS011;40915;50.826;4.356;2023-02-28T16:22:12;4.80;;;2.40;;
25627;SDS011;40915;50.826;4.356;2023-02-28T16:24:37;4.23;;;3.10;;
25627;SDS011;40915;50.826;4.356;2023-02-28T16:27:04;4.07;;;2.70;;
25627;SDS011;40915;50.826;4.356;2023-02-28T16:29:32;5.90;;;2.57;;
25627;SDS011;40915;50.826;4.356;2023-02-28T16:32:01;4.30;;;2.40;;
25627;SDS011;40915;50.826;4.356;2023-02-28T16:34:30;3.27;;;2.50;;
25627;SDS011;40915;50.826;4.356;2023-02-28T16:36:56;5.80;;;2.80;;
25627;SDS011;40915;50.826;4.356;2023-02-28T16:39:22;3.00;;;2.50;;
25627;SDS011;40915;50.826;4.356;2023-02-28T16:41:48;3.73;;;2.47;;
25627;SDS011;40915;50.826;4.356;2023-02-28T16:44:24;4.63;;;2.93;;
25627;SDS011;40915;50.826;4.356;2023-02-28T16:46:53;3.43;;;2.53;;
25627;SDS011;40915;50.826;4.356;2023-02-28T16:49:20;3.13;;;2.60;;
25627;SDS011;40915;50.826;4.356;2023-02-28T16:51:45;3.33;;;2.50;;
25627;SDS011;40915;50.826;4.356;2023-02-28T16:54:21;3.30;;;2.10;;
25627;SDS011;40915;50.826;4.356;2023-02-28T16:56:47;6.00;;;2.40;;
25627;SDS011;40915;50.826;4.356;2023-02-28T16:59:14;3.47;;;2.50;;
25627;SDS011;40915;50.826;4.356;2023-02-28T17:01:45;3.90;;;2.53;;
25627;SDS011;40915;50.826;4.356;2023-02-28T17:04:11;7.17;;;2.87;;
25627;SDS011;40915;50.826;4.356;2023-02-28T17:06:38;3.87;;;2.50;;
25627;SDS011;40915;50.826;4.356;2023-02-28T17:09:05;5.00;;;2.93;;
25627;SDS011;40915;50.826;4.356;2023-02-28T17:11:35;4.90;;;2.30;;
25627;SDS011;40915;50.826;4.356;2023-02-28T17:14:01;4.87;;;2.43;;
25627;SDS011;40915;50.826;4.356;2023-02-28T17:16:31;4.27;;;2.67;;
25627;SDS011;40915;50.826;4.356;2023-02-28T17:19:00;4.90;;;2.63;;
25627;SDS011;40915;50.826;4.356;2023-02-28T17:21:28;8.43;;;2.47;;